WetterOnline ( https://www.wetteronline.de )

Wetter aktuell Aigerding

Aktuelles Wetter: Fürstenzell (480m)

6-stündlich | Neueste Meldungen
Ortszeit Temperatur Wetter
Mi, 04.08. 20:00 13.8° C leichter Regen
Mi, 04.08. 14:00 16.7° C Sprühregen
Mi, 04.08. 8:00 13.5° C Sprühregen
Mi, 04.08. 2:00 13.9° C leichter Regen
Di, 03.08. 20:00 19.4° C bedeckt
Di, 03.08. 14:00 20.9° C wolkig
Di, 03.08. 8:00 13.1° C wolkig
Di, 03.08. 2:00 12.6° C fast wolkenlos
Ortszeit Temperatur Wetter
Mi, 04.08. 22:00 13.5° C leichter Regen
Mi, 04.08. 21:50 13.5° C leichter Regen
Mi, 04.08. 21:40 13.4° C leichter Regen
Mi, 04.08. 21:30 13.5° C leichter Regen
Mi, 04.08. 21:20 13.5° C leichter Regen
Mi, 04.08. 21:10 13.4° C leichter Regen
Mi, 04.08. 21:00 13.5° C leichter Regen
Mi, 04.08. 20:30 13.8° C leichter Regen
Mi, 04.08. 20:00 13.8° C leichter Regen
Mi, 04.08. 19:30 14.2° C leichter Regen
Mi, 04.08. 19:00 14.7° C leichter Regen
Ortszeit Relative Feuchte Sichtweite
Mi, 04.08. 20:00 91% 20 km
Mi, 04.08. 14:00 70% 45 km
Mi, 04.08. 8:00 97% 25 km
Mi, 04.08. 2:00 99% 10 km
Di, 03.08. 20:00 70% 65 km
Di, 03.08. 14:00 57% 45 km
Di, 03.08. 8:00 93% 3.1 km
Di, 03.08. 2:00 97% 35 km
Ortszeit Relative Feuchte Sichtweite
Mi, 04.08. 22:00 96% 14 km
Mi, 04.08. 21:50 96% -
Mi, 04.08. 21:40 95% -
Mi, 04.08. 21:30 96% 13 km
Mi, 04.08. 21:20 96% -
Mi, 04.08. 21:10 95% -
Mi, 04.08. 21:00 93% 18 km
Mi, 04.08. 20:30 89% 17 km
Mi, 04.08. 20:00 91% 20 km
Mi, 04.08. 19:30 85% 19 km
Mi, 04.08. 19:00 86% 29 km
Ortszeit Niederschlagsmenge Niederschlagsart
Mi, 04.08. 20:00 2 l/m2 in 12 Std. Regen
Mi, 04.08. 14:00 0.1 l/m2 in 6 Std. Regen
Mi, 04.08. 8:00 25 l/m2 in 12 Std. Regen
Mi, 04.08. 2:00 25 l/m2 in 6 Std. Regen
Di, 03.08. 20:00 0.1 l/m2 in 12 Std. Regen
Di, 03.08. 14:00 0.0 l/m2 in 6 Std. -
Di, 03.08. 8:00 8 l/m2 in 12 Std. -
Di, 03.08. 2:00 8 l/m2 in 6 Std. Regen
Ortszeit Niederschlagsmenge Niederschlagsart
Mi, 04.08. 22:00 0.9 l/m2 in 1 Std. Regen
Mi, 04.08. 21:50 keine Meldung -
Mi, 04.08. 21:40 keine Meldung -
Mi, 04.08. 21:30 0.4 l/m2 in 1 Std. -
Mi, 04.08. 21:20 keine Meldung -
Mi, 04.08. 21:10 keine Meldung -
Mi, 04.08. 21:00 1.0 l/m2 in 1 Std. Regen
Mi, 04.08. 20:30 0.4 l/m2 in 1 Std. -
Mi, 04.08. 20:00 0.6 l/m2 in 1 Std. Regen
Mi, 04.08. 19:30 0.2 l/m2 in 1 Std. -
Mi, 04.08. 19:00 0.1 l/m2 in 1 Std. Regen
Ortszeit Stärke Spitze Richtung
km/h Bft. km/h Grad Sektor
Mi, 04.08. 20:00 4 1 11 110° O
Mi, 04.08. 14:00 4 1 14 250° W
Mi, 04.08. 8:00 6 1 22 220° SW
Mi, 04.08. 2:00 7 2 61 210° SW
Di, 03.08. 20:00 4 1 22 160° S
Di, 03.08. 14:00 6 1 17 100° O
Di, 03.08. 8:00 4 1 11 70° O
Di, 03.08. 2:00 2 1 44 170° S
Ortszeit Stärke Spitze Richtung
km/h Bft. km/h Grad Sektor
Mi, 04.08. 22:00 0 0 4 - -
Mi, 04.08. 21:50 0 0 - 80° O
Mi, 04.08. 21:40 2 1 - 20° N
Mi, 04.08. 21:30 0 0 4 - -
Mi, 04.08. 21:20 2 1 - 90° O
Mi, 04.08. 21:10 2 1 - 150° SO
Mi, 04.08. 21:00 2 1 7 130° SO
Mi, 04.08. 20:30 4 1 7 140° SO
Mi, 04.08. 20:00 4 1 7 110° O
Mi, 04.08. 19:30 4 1 7 140° SO
Mi, 04.08. 19:00 4 1 11 140° SO
Ortszeit Untergrenze Bedeckung Gattung
total tief tief mittel hoch
Mi, 04.08. 20:00 2700 m 8/8 8/8 - - -
Mi, 04.08. 14:00 960 m 8/8 8/8 - - -
Mi, 04.08. 8:00 <30 m 8/8 0/8 - - -
Mi, 04.08. 2:00 <30 m 8/8 0/8 - - -
Di, 03.08. 20:00 2100 m 8/8 8/8 - - -
Di, 03.08. 14:00 1020 m 8/8 1/8 - - -
Di, 03.08. 8:00 <30 m 5/8 0/8 - - -
Di, 03.08. 2:00 1500 m 1/8 1/8 - - -
Ortszeit Bedeckungsgrad in Achtel und Wolkenuntergrenze
Mi, 04.08. 22:00 8(2700m)
Mi, 04.08. 21:50 8(2700m)
Mi, 04.08. 21:40 8(2700m)
Mi, 04.08. 21:30 8(2700m)
Mi, 04.08. 21:20 8(2700m)
Mi, 04.08. 21:10 7(2700m)
Mi, 04.08. 21:00 7(2700m)
Mi, 04.08. 20:30 8(2700m)
Mi, 04.08. 20:00 8(2700m)
Mi, 04.08. 19:30 8(2700m)
Mi, 04.08. 19:00 8(2700m)
Ortszeit Luftdruck NN (hPa) Tendenz (hPa in 3 Std.)
Mi, 04.08. 20:00 1014 - 1,0
Mi, 04.08. 14:00 1015 - 0,8
Mi, 04.08. 8:00 1016 + 0,4
Mi, 04.08. 2:00 1016 - 0,5
Di, 03.08. 20:00 1013 + 0,3
Di, 03.08. 14:00 1013 - 1,5
Di, 03.08. 8:00 1017 - 0,2
Di, 03.08. 2:00 1017 0,0
Ortszeit Luftdruck NN (hPa) Tendenz (hPa in 3 Std.)
Mi, 04.08. 22:00 1013 - 0,5
Mi, 04.08. 21:50 1013 keine Meldung
Mi, 04.08. 21:40 1014 keine Meldung
Mi, 04.08. 21:30 1014 - 0,4
Mi, 04.08. 21:20 1014 keine Meldung
Mi, 04.08. 21:10 1014 keine Meldung
Mi, 04.08. 21:00 1014 - 0,7
Mi, 04.08. 20:30 1014 - 0,8
Mi, 04.08. 20:00 1014 - 1,0
Mi, 04.08. 19:30 1014 - 0,6
Mi, 04.08. 19:00 1014 - 0,5
Ortszeit Schneehöhe (cm)
Mi, 04.08. 20:00 -
Mi, 04.08. 14:00 -
Mi, 04.08. 8:00 -
Mi, 04.08. 2:00 -
Di, 03.08. 20:00 -
Di, 03.08. 14:00 -
Di, 03.08. 8:00 -
Di, 03.08. 2:00 -
Ortszeit Schneehöhe (cm)
Mi, 04.08. 22:00 -
Mi, 04.08. 21:50 -
Mi, 04.08. 21:40 -
Mi, 04.08. 21:30 -
Mi, 04.08. 21:20 -
Mi, 04.08. 21:10 -
Mi, 04.08. 21:00 -
Mi, 04.08. 20:30 -
Mi, 04.08. 20:00 -
Mi, 04.08. 19:30 -
Mi, 04.08. 19:00 -
Link zu dieser Seite / Seite empfehlen

Das Wetter in ...